createdAt,value
2018-09-05T00:00:35.484Z,19.56
2018-09-05T00:03:06.782Z,19.55
2018-09-05T00:05:37.564Z,19.53
2018-09-05T00:08:08.480Z,19.56
2018-09-05T00:10:39.565Z,19.44
2018-09-05T00:13:10.505Z,19.53
2018-09-05T00:15:41.531Z,19.47
2018-09-05T00:18:12.521Z,19.49
2018-09-05T00:20:43.514Z,19.37
2018-09-05T00:23:14.494Z,19.29
2018-09-05T00:25:45.494Z,19.35
2018-09-05T00:28:16.497Z,19.36
2018-09-05T00:30:47.509Z,19.33
2018-09-05T00:33:18.493Z,19.40
2018-09-05T00:35:49.474Z,19.28
2018-09-05T00:38:20.485Z,19.26
2018-09-05T00:40:51.477Z,19.33
2018-09-05T00:43:22.509Z,19.26
2018-09-05T00:45:53.457Z,19.31
2018-09-05T00:48:24.489Z,19.37
2018-09-05T00:50:55.486Z,19.19
2018-09-05T00:53:26.645Z,19.23
2018-09-05T00:55:57.529Z,19.26
2018-09-05T00:58:28.489Z,19.20
2018-09-05T01:00:59.532Z,19.23
2018-09-05T01:03:30.508Z,19.21
2018-09-05T01:06:01.484Z,19.16
2018-09-05T01:08:32.505Z,19.21
2018-09-05T01:11:03.498Z,19.20
2018-09-05T01:13:34.497Z,19.21
2018-09-05T01:16:05.642Z,19.12
2018-09-05T01:18:36.560Z,19.21
2018-09-05T01:21:07.577Z,19.18
2018-09-05T01:23:38.484Z,19.19
2018-09-05T01:26:09.451Z,19.11
2018-09-05T01:28:40.441Z,19.08
2018-09-05T01:31:11.485Z,19.02
2018-09-05T01:33:42.502Z,19.05
2018-09-05T01:36:17.668Z,18.97
2018-09-05T01:38:48.563Z,18.95
2018-09-05T01:41:19.541Z,18.67
2018-09-05T01:43:50.501Z,18.58
2018-09-05T01:46:21.491Z,18.53
2018-09-05T01:48:52.508Z,18.42
2018-09-05T01:51:23.485Z,18.34
2018-09-05T01:53:54.479Z,18.41
2018-09-05T01:56:25.456Z,18.36
2018-09-05T01:58:56.478Z,18.26
2018-09-05T02:01:27.473Z,18.16
2018-09-05T02:03:58.497Z,18.25
2018-09-05T02:06:29.464Z,18.22
2018-09-05T02:09:00.674Z,18.28
2018-09-05T02:11:31.497Z,18.25
2018-09-05T02:14:02.437Z,18.18
2018-09-05T02:16:33.473Z,18.27
2018-09-05T02:19:04.461Z,18.25
2018-09-05T02:21:35.520Z,18.30
2018-09-05T02:24:06.500Z,18.32
2018-09-05T02:26:37.508Z,18.30
2018-09-05T02:29:08.479Z,18.25
2018-09-05T02:31:39.410Z,18.28
2018-09-05T02:34:10.444Z,18.27
2018-09-05T02:36:41.438Z,18.24
2018-09-05T02:39:13.210Z,18.26
2018-09-05T02:41:44.345Z,18.30
2018-09-05T02:44:21.605Z,18.29
2018-09-05T02:46:53.286Z,18.17
2018-09-05T02:49:24.366Z,18.23
2018-09-05T02:51:55.430Z,18.21
2018-09-05T02:57:11.695Z,18.23
2018-09-05T02:59:42.583Z,18.21
2018-09-05T03:02:13.484Z,18.19
2018-09-05T03:04:44.461Z,18.24
2018-09-05T03:07:15.463Z,18.26
2018-09-05T03:09:46.485Z,18.30
2018-09-05T03:12:22.777Z,18.20
2018-09-05T03:14:53.818Z,18.19
2018-09-05T03:17:24.645Z,18.20
2018-09-05T03:19:55.496Z,18.17
2018-09-05T03:22:26.498Z,18.17
2018-09-05T03:24:57.519Z,18.18
2018-09-05T03:27:28.474Z,18.09
2018-09-05T03:29:59.650Z,18.12
2018-09-05T03:32:30.737Z,18.17
2018-09-05T03:35:01.460Z,18.09
2018-09-05T03:37:32.464Z,18.12
2018-09-05T03:40:03.695Z,18.09
2018-09-05T03:42:34.556Z,18.15
2018-09-05T03:45:05.521Z,18.09
2018-09-05T03:47:36.487Z,18.02
2018-09-05T03:50:09.018Z,18.01
2018-09-05T03:52:40.284Z,17.78
2018-09-05T03:55:11.364Z,17.53
2018-09-05T03:57:42.424Z,17.57
2018-09-05T04:00:13.521Z,17.50
2018-09-05T04:02:44.481Z,17.54
2018-09-05T04:05:15.506Z,17.48
2018-09-05T04:07:46.525Z,17.35
2018-09-05T04:10:17.583Z,17.43
2018-09-05T04:12:48.529Z,17.47
2018-09-05T04:15:19.568Z,17.49
2018-09-05T04:17:50.517Z,17.51
2018-09-05T04:20:21.534Z,17.53
2018-09-05T04:22:52.519Z,17.54
2018-09-05T04:25:23.526Z,17.59
2018-09-05T04:27:54.474Z,17.49
2018-09-05T04:30:25.556Z,17.39
2018-09-05T04:32:56.513Z,17.37
2018-09-05T04:35:27.518Z,17.23
2018-09-05T04:37:58.512Z,17.16
2018-09-05T04:40:29.515Z,17.11
2018-09-05T04:43:00.480Z,17.01
2018-09-05T04:45:31.531Z,16.99
2018-09-05T04:48:02.456Z,17.03
2018-09-05T04:50:33.525Z,17.18
2018-09-05T04:53:04.489Z,17.10
2018-09-05T04:55:35.449Z,17.09
2018-09-05T04:58:06.513Z,17.03
2018-09-05T05:00:37.477Z,17.02
2018-09-05T05:03:08.378Z,17.09
2018-09-05T05:05:39.565Z,17.19
2018-09-05T05:08:10.466Z,17.13
2018-09-05T05:10:41.678Z,17.09
2018-09-05T05:13:12.522Z,16.96
2018-09-05T05:15:43.509Z,17.21
2018-09-05T05:18:14.460Z,16.96
2018-09-05T05:20:45.450Z,17.17
2018-09-05T05:23:16.578Z,17.02
2018-09-05T05:25:47.569Z,16.99
2018-09-05T05:28:18.485Z,17.09
2018-09-05T05:30:49.495Z,17.31
2018-09-05T05:33:20.469Z,17.08
2018-09-05T05:35:51.461Z,17.18
2018-09-05T05:38:22.466Z,17.02
2018-09-05T05:40:53.485Z,16.98
2018-09-05T05:43:24.421Z,17.19
2018-09-05T05:45:55.513Z,16.99
2018-09-05T05:48:26.468Z,17.09
2018-09-05T05:50:57.487Z,17.33
2018-09-05T05:53:28.570Z,17.16
2018-09-05T05:55:59.497Z,17.09
2018-09-05T05:58:30.716Z,17.45
2018-09-05T06:01:01.691Z,17.31
2018-09-05T06:03:32.469Z,17.27
2018-09-05T06:06:03.504Z,17.39
2018-09-05T06:08:34.446Z,17.51
2018-09-05T06:11:05.754Z,17.46
2018-09-05T06:13:36.590Z,17.56
2018-09-05T06:16:07.529Z,17.49
2018-09-05T06:18:39.127Z,17.74
2018-09-05T06:21:10.463Z,17.56
2018-09-05T06:23:41.448Z,17.73
2018-09-05T06:26:12.480Z,17.58
2018-09-05T06:28:43.458Z,17.74
2018-09-05T06:31:14.614Z,17.72
2018-09-05T06:33:45.473Z,17.97
2018-09-05T06:36:16.489Z,18.21
2018-09-05T06:38:47.493Z,18.22
2018-09-05T06:41:18.548Z,18.30
2018-09-05T06:43:49.485Z,18.35
2018-09-05T06:46:20.464Z,18.53
2018-09-05T06:48:51.526Z,18.65
2018-09-05T06:51:22.529Z,18.75
2018-09-05T06:53:53.478Z,18.93
2018-09-05T06:56:24.502Z,18.87
2018-09-05T06:58:55.496Z,19.10
2018-09-05T07:01:26.460Z,19.32
2018-09-05T07:03:57.608Z,19.28
2018-09-05T07:06:28.481Z,19.45
2018-09-05T07:08:59.481Z,19.59
2018-09-05T07:11:30.483Z,19.72
2018-09-05T07:14:02.457Z,19.80
2018-09-05T07:16:33.458Z,19.88
2018-09-05T07:19:06.245Z,19.91
2018-09-05T07:21:37.681Z,20.08
2018-09-05T07:24:08.693Z,20.11
2018-09-05T07:26:39.586Z,20.08
2018-09-05T07:29:10.578Z,20.13
2018-09-05T07:31:41.553Z,20.31
2018-09-05T07:34:12.489Z,20.25
2018-09-05T07:36:43.482Z,20.53
2018-09-05T07:39:14.510Z,20.62
2018-09-05T07:41:45.450Z,20.38
2018-09-05T07:44:16.449Z,20.64
2018-09-05T07:46:47.468Z,20.58
2018-09-05T07:49:18.444Z,20.70
2018-09-05T07:51:49.570Z,21.00
2018-09-05T07:54:20.565Z,21.26
2018-09-05T07:56:51.501Z,21.08
2018-09-05T07:59:22.478Z,20.83
2018-09-05T08:01:53.497Z,21.21
2018-09-05T08:04:24.458Z,21.47
2018-09-05T08:06:55.476Z,21.15
2018-09-05T08:09:26.494Z,21.33
2018-09-05T08:11:57.489Z,21.77
2018-09-05T08:14:28.462Z,22.04
2018-09-05T08:16:59.449Z,22.09
2018-09-05T08:19:30.457Z,22.27
2018-09-05T08:22:01.406Z,22.44
2018-09-05T08:24:32.513Z,22.33
2018-09-05T08:27:03.515Z,22.42
2018-09-05T08:29:34.466Z,22.58
2018-09-05T08:32:05.472Z,22.95
2018-09-05T08:34:36.486Z,23.20
2018-09-05T08:37:07.665Z,23.95
2018-09-05T08:39:38.474Z,23.76
2018-09-05T08:42:09.517Z,24.62
2018-09-05T08:44:40.544Z,24.67
2018-09-05T08:47:11.526Z,24.97
2018-09-05T08:49:42.461Z,24.75
2018-09-05T08:52:13.518Z,24.23
2018-09-05T08:54:44.470Z,24.84
2018-09-05T08:57:15.491Z,25.06
2018-09-05T08:59:46.484Z,25.52
2018-09-05T09:02:17.522Z,25.99
2018-09-05T09:04:48.484Z,25.79
2018-09-05T09:07:19.629Z,26.24
2018-09-05T09:09:50.520Z,26.33
2018-09-05T09:12:21.543Z,26.63
2018-09-05T09:14:52.478Z,26.65
2018-09-05T09:17:23.464Z,27.41
2018-09-05T09:19:54.485Z,27.39
2018-09-05T09:22:25.490Z,27.45
2018-09-05T09:24:56.497Z,27.45
2018-09-05T09:27:27.489Z,26.89
2018-09-05T09:29:58.477Z,27.75
2018-09-05T09:32:29.505Z,28.56
2018-09-05T09:35:00.433Z,28.10
2018-09-05T09:37:31.465Z,28.08
2018-09-05T09:40:02.464Z,26.96
2018-09-05T09:42:33.497Z,28.23
2018-09-05T09:45:04.489Z,27.76
2018-09-05T09:47:35.465Z,27.89
2018-09-05T09:50:07.746Z,27.45
2018-09-05T09:52:39.017Z,26.45
2018-09-05T09:55:10.290Z,27.28
2018-09-05T09:57:41.387Z,27.41
2018-09-05T10:00:12.606Z,27.34
2018-09-05T10:02:48.544Z,27.41
2018-09-05T10:06:27.341Z,27.16
2018-09-05T10:09:03.444Z,27.04
2018-09-05T10:11:39.596Z,27.10
2018-09-05T10:14:16.451Z,26.72
2018-09-05T10:16:52.646Z,26.47
2018-09-05T10:19:23.545Z,26.75
2018-09-05T10:21:55.468Z,26.82
2018-09-05T10:24:26.485Z,27.20
2018-09-05T10:26:57.465Z,26.71
2018-09-05T10:29:28.463Z,26.95
2018-09-05T10:31:59.499Z,27.09
2018-09-05T10:34:30.495Z,26.91
2018-09-05T10:37:01.497Z,27.11
2018-09-05T10:39:32.570Z,26.95
2018-09-05T10:42:03.506Z,27.05
2018-09-05T10:44:34.497Z,27.53
2018-09-05T10:47:05.553Z,27.17
2018-09-05T10:49:36.502Z,27.67
2018-09-05T10:52:08.675Z,27.34
2018-09-05T10:54:39.497Z,28.19
2018-09-05T10:57:10.497Z,28.50
2018-09-05T11:02:24.498Z,29.39
2018-09-05T11:04:55.491Z,28.71
2018-09-05T11:07:26.537Z,29.53
2018-09-05T11:09:57.486Z,28.53
2018-09-05T11:12:28.513Z,29.06
2018-09-05T11:14:59.517Z,29.76
2018-09-05T11:17:30.505Z,29.45
2018-09-05T11:20:01.546Z,30.42
2018-09-05T11:22:32.521Z,29.82
2018-09-05T11:25:03.509Z,30.43
2018-09-05T11:27:34.610Z,30.46
2018-09-05T11:30:05.667Z,31.36
2018-09-05T11:32:36.602Z,30.81
2018-09-05T11:35:07.690Z,31.45
2018-09-05T11:37:38.561Z,30.95
2018-09-05T11:40:10.405Z,31.45
2018-09-05T11:42:41.507Z,31.22
2018-09-05T11:45:12.516Z,30.45
2018-09-05T11:47:43.602Z,31.02
2018-09-05T11:50:14.579Z,30.94
2018-09-05T11:52:45.625Z,31.67
2018-09-05T11:55:16.594Z,32.56
2018-09-05T11:57:47.649Z,32.37
2018-09-05T12:00:18.561Z,31.52
2018-09-05T12:02:49.521Z,32.37
2018-09-05T12:05:20.579Z,33.38
2018-09-05T12:07:51.567Z,31.69
2018-09-05T12:10:22.544Z,30.67
2018-09-05T12:12:54.018Z,31.49
2018-09-05T12:15:25.573Z,32.02
2018-09-05T12:17:56.496Z,31.59
2018-09-05T12:20:27.539Z,32.73
2018-09-05T12:22:58.536Z,33.35
2018-09-05T12:25:29.599Z,33.08
2018-09-05T12:28:00.721Z,32.30
2018-09-05T12:30:31.617Z,33.49
2018-09-05T12:33:02.560Z,34.10
2018-09-05T12:35:33.527Z,32.76
2018-09-05T12:38:04.591Z,33.37
2018-09-05T12:40:35.586Z,33.23
2018-09-05T12:43:06.700Z,33.03
2018-09-05T12:45:37.615Z,32.36
2018-09-05T12:48:09.551Z,33.13
2018-09-05T12:50:40.522Z,33.86
2018-09-05T12:53:11.578Z,33.95
2018-09-05T12:55:42.583Z,33.46
2018-09-05T12:58:13.630Z,34.07
2018-09-05T13:00:44.780Z,33.66
2018-09-05T13:03:15.925Z,32.64
2018-09-05T13:05:47.309Z,33.89
2018-09-05T13:08:18.406Z,34.01
2018-09-05T13:10:49.572Z,34.62
2018-09-05T13:13:20.602Z,32.83
2018-09-05T13:15:51.590Z,32.96
2018-09-05T13:18:22.494Z,34.16
2018-09-05T13:20:53.562Z,33.54
2018-09-05T13:23:24.759Z,32.59
2018-09-05T13:25:57.485Z,32.76
2018-09-05T13:28:31.565Z,32.46
2018-09-05T13:31:03.245Z,33.38
2018-09-05T13:33:35.611Z,33.36
2018-09-05T13:36:06.925Z,33.83
2018-09-05T13:38:38.453Z,33.48
2018-09-05T13:41:09.694Z,33.74
2018-09-05T13:43:40.595Z,33.15
2018-09-05T13:46:12.514Z,32.38
2018-09-05T13:48:43.566Z,32.80
2018-09-05T13:51:14.592Z,33.60
2018-09-05T13:53:45.607Z,34.73
2018-09-05T13:56:16.600Z,33.64
2018-09-05T13:58:48.034Z,33.33
2018-09-05T14:01:19.450Z,33.87
2018-09-05T14:03:50.818Z,32.87
2018-09-05T14:06:21.704Z,31.98
2018-09-05T14:08:52.734Z,32.50
2018-09-05T14:11:23.718Z,33.35
2018-09-05T14:13:55.721Z,33.83
2018-09-05T14:16:26.718Z,33.37
2018-09-05T14:18:57.770Z,33.97
2018-09-05T14:21:29.184Z,34.25
2018-09-05T14:24:00.557Z,33.52
2018-09-05T14:26:31.658Z,33.47
2018-09-05T14:29:02.550Z,32.95
2018-09-05T14:31:35.046Z,33.62
2018-09-05T14:34:06.393Z,33.79
2018-09-05T14:36:37.589Z,33.39
2018-09-05T14:39:13.797Z,33.20
2018-09-05T14:41:44.591Z,32.50
2018-09-05T14:44:15.490Z,32.74
2018-09-05T14:46:46.470Z,32.67
2018-09-05T14:49:18.294Z,32.48
2018-09-05T14:51:51.466Z,32.60
2018-09-05T14:54:22.585Z,32.17
2018-09-05T14:56:53.485Z,32.14
2018-09-05T14:59:24.469Z,31.46
2018-09-05T15:01:55.505Z,31.81
2018-09-05T15:04:26.519Z,32.20
2018-09-05T15:06:57.580Z,31.28
2018-09-05T15:09:28.453Z,31.39
2018-09-05T15:11:59.574Z,31.31
2018-09-05T15:14:30.475Z,31.44
2018-09-05T15:17:02.374Z,31.28
2018-09-05T15:33:17.318Z,30.23
2018-09-05T15:35:52.735Z,30.26
2018-09-05T15:38:25.378Z,30.05
2018-09-05T15:41:01.376Z,30.23
2018-09-05T15:57:18.291Z,29.31
2018-09-05T15:59:57.477Z,29.49
2018-09-05T16:02:49.807Z,29.40
2018-09-05T16:05:20.561Z,29.64
2018-09-05T16:08:01.444Z,29.42
2018-09-05T16:10:52.308Z,29.27
2018-09-05T16:13:28.780Z,28.73
2018-09-05T16:16:19.068Z,29.11
2018-09-05T16:26:59.843Z,28.71
2018-09-05T16:29:31.432Z,28.75
2018-09-05T16:32:19.866Z,28.92
2018-09-05T16:35:00.227Z,28.70
2018-09-05T16:37:32.428Z,28.65
2018-09-05T16:40:26.893Z,28.65
2018-09-05T16:43:01.621Z,28.50
2018-09-05T16:45:41.324Z,28.49
2018-09-05T16:48:20.863Z,28.48
2018-09-05T16:51:26.730Z,28.51
2018-09-05T16:53:57.554Z,28.40
2018-09-05T16:59:42.900Z,28.18
2018-09-05T17:02:45.009Z,28.13
2018-09-05T17:05:28.934Z,27.97
2018-09-05T17:08:07.438Z,28.04
2018-09-05T17:10:56.554Z,27.88
2018-09-05T17:13:34.416Z,27.90
2018-09-05T17:19:01.833Z,27.79
2018-09-05T17:21:53.838Z,27.75
2018-09-05T17:24:39.724Z,27.64
2018-09-05T17:27:18.583Z,27.55
2018-09-05T17:29:50.224Z,27.53
2018-09-05T17:32:22.290Z,27.42
2018-09-05T17:35:00.849Z,27.37
2018-09-05T17:37:35.127Z,27.28
2018-09-05T17:40:13.209Z,27.25
2018-09-05T17:42:44.395Z,27.13
2018-09-05T17:45:28.773Z,27.06
2018-09-05T17:50:53.235Z,26.86
2018-09-05T17:53:28.936Z,26.76
2018-09-05T17:56:03.411Z,26.58
2018-09-05T17:58:34.640Z,26.52
2018-09-05T18:01:06.652Z,26.48
2018-09-05T18:03:37.589Z,26.43
2018-09-05T18:06:09.291Z,26.32
2018-09-05T18:08:41.444Z,26.24
2018-09-05T18:11:13.094Z,26.17
2018-09-05T18:13:45.506Z,26.10
2018-09-05T18:16:16.510Z,26.02
2018-09-05T18:18:47.658Z,25.90
2018-09-05T18:21:18.642Z,25.88
2018-09-05T18:23:49.549Z,25.79
2018-09-05T18:26:22.733Z,25.72
2018-09-05T18:28:54.183Z,25.67
2018-09-05T18:31:25.466Z,25.58
2018-09-05T18:33:56.485Z,25.50
2018-09-05T18:36:27.486Z,25.49
2018-09-05T18:38:58.453Z,25.38
2018-09-05T18:42:01.405Z,25.39
2018-09-05T18:44:32.593Z,25.29
2018-09-05T18:47:03.510Z,25.25
2018-09-05T18:49:34.437Z,25.25
2018-09-05T18:52:05.453Z,25.18
2018-09-05T18:54:36.432Z,25.13
2018-09-05T18:57:07.469Z,25.08
2018-09-05T18:59:38.424Z,25.07
2018-09-05T19:02:09.453Z,25.04
2018-09-05T19:04:40.460Z,24.98
2018-09-05T19:07:11.746Z,24.99
2018-09-05T19:09:42.685Z,24.91
2018-09-05T19:12:13.843Z,24.85
2018-09-05T19:14:44.711Z,24.82
2018-09-05T19:17:15.648Z,24.83
2018-09-05T19:19:48.186Z,24.82
2018-09-05T19:22:19.458Z,24.71
2018-09-05T19:24:50.552Z,24.68
2018-09-05T19:27:21.497Z,24.67
2018-09-05T19:29:52.539Z,24.62
2018-09-05T19:32:23.522Z,24.65
2018-09-05T19:35:03.624Z,24.57
2018-09-05T19:37:48.998Z,24.55
2018-09-05T19:40:20.288Z,24.53
2018-09-05T19:42:50.397Z,24.49
2018-09-05T19:45:21.510Z,24.44
2018-09-05T19:47:53.464Z,24.44
2018-09-05T19:50:24.618Z,24.33
2018-09-05T19:52:55.770Z,24.34
2018-09-05T19:55:26.643Z,24.32
2018-09-05T19:57:57.674Z,24.26
2018-09-05T20:00:28.541Z,24.24
2018-09-05T20:03:05.163Z,24.21
2018-09-05T20:05:37.455Z,24.17
2018-09-05T20:08:08.658Z,24.09
2018-09-05T20:10:41.617Z,24.08
2018-09-05T20:13:13.094Z,24.11
2018-09-05T20:15:44.393Z,24.04
2018-09-05T20:18:15.626Z,24.00
2018-09-05T20:20:46.545Z,23.98
2018-09-05T20:23:17.514Z,23.90
2018-09-05T20:25:48.485Z,23.87
2018-09-05T20:28:25.007Z,23.86
2018-09-05T20:30:58.660Z,23.79
2018-09-05T20:36:54.462Z,23.63
2018-09-05T20:53:00.526Z,23.38
2018-09-05T20:55:31.564Z,23.36
2018-09-05T20:58:02.680Z,23.37
2018-09-05T21:00:33.549Z,23.24
2018-09-05T21:03:06.278Z,23.25
2018-09-05T21:05:36.425Z,23.23
2018-09-05T21:08:07.698Z,23.22
2018-09-05T21:10:38.544Z,23.18
2018-09-05T21:13:09.473Z,23.19
2018-09-05T21:15:40.489Z,23.10
2018-09-05T21:18:11.646Z,23.06
2018-09-05T21:20:42.502Z,22.97
2018-09-05T21:23:13.441Z,23.00
2018-09-05T21:25:44.483Z,22.95
2018-09-05T21:28:15.597Z,22.92
2018-09-05T21:30:46.521Z,22.94
2018-09-05T21:33:17.813Z,22.84
2018-09-05T21:35:48.605Z,22.79
2018-09-05T21:38:19.568Z,22.83
2018-09-05T21:40:50.464Z,22.75
2018-09-05T21:43:21.434Z,22.72
2018-09-05T21:45:52.445Z,22.68
2018-09-05T21:48:23.516Z,22.69
2018-09-05T21:50:54.397Z,22.68
2018-09-05T21:53:25.449Z,22.60
2018-09-05T21:55:56.416Z,22.53
2018-09-05T21:58:27.469Z,22.50
2018-09-05T22:00:58.512Z,22.37
2018-09-05T22:03:29.421Z,22.33
2018-09-05T22:06:00.432Z,22.22
2018-09-05T22:08:31.468Z,22.04
2018-09-05T22:11:07.446Z,22.01
2018-09-05T22:13:38.665Z,21.95
2018-09-05T22:16:09.545Z,21.97
2018-09-05T22:18:40.508Z,21.95
2018-09-05T22:21:11.454Z,21.78
2018-09-05T22:23:42.445Z,21.77
2018-09-05T22:26:13.513Z,21.70
2018-09-05T22:28:44.472Z,21.77
2018-09-05T22:31:15.451Z,21.81
2018-09-05T22:33:46.466Z,21.73
2018-09-05T22:36:17.498Z,21.59
2018-09-05T22:38:48.519Z,21.66
2018-09-05T22:41:19.497Z,21.53
2018-09-05T22:44:13.449Z,21.59
2018-09-05T22:47:07.419Z,21.45
2018-09-05T22:52:15.439Z,21.40
2018-09-05T22:55:43.290Z,21.23
2018-09-05T22:58:44.441Z,21.17
2018-09-05T23:01:36.406Z,21.12
2018-09-05T23:06:55.220Z,21.03
2018-09-05T23:09:49.289Z,20.92
2018-09-05T23:12:43.255Z,20.90
2018-09-05T23:15:30.429Z,20.87
2018-09-05T23:19:34.450Z,20.45
2018-09-05T23:22:05.492Z,20.14
2018-09-05T23:24:36.447Z,20.04
2018-09-05T23:27:07.469Z,20.10
2018-09-05T23:29:38.488Z,20.09
2018-09-05T23:32:09.459Z,20.20
2018-09-05T23:34:40.458Z,20.24
2018-09-05T23:37:11.445Z,20.26
2018-09-05T23:39:42.485Z,20.23
2018-09-05T23:42:13.490Z,20.07
2018-09-05T23:44:44.554Z,20.21
2018-09-05T23:47:15.538Z,20.26
2018-09-05T23:49:46.497Z,20.26
2018-09-05T23:52:17.463Z,20.24
2018-09-05T23:54:48.493Z,20.27
2018-09-05T23:57:19.504Z,20.29
2018-09-05T23:59:50.478Z,20.34
